createdAt,value
2022-10-04T04:01:45.534Z,11.21
2022-10-04T04:04:45.888Z,11.10
2022-10-04T04:07:15.329Z,11.02
2022-10-04T04:10:06.323Z,10.99
2022-10-04T04:12:53.259Z,10.97
2022-10-04T04:15:23.020Z,10.94
2022-10-04T04:17:54.382Z,10.92
2022-10-04T04:20:32.254Z,10.92
2022-10-04T04:23:16.236Z,10.91
2022-10-04T04:25:49.448Z,10.92
2022-10-04T04:28:32.708Z,10.93
2022-10-04T04:31:27.757Z,10.94
2022-10-04T04:34:01.900Z,10.94
2022-10-04T04:36:41.119Z,10.91
2022-10-04T04:39:35.382Z,10.92
2022-10-04T04:42:11.069Z,10.97
2022-10-04T04:44:49.910Z,11.00
2022-10-04T04:47:58.218Z,11.12
2022-10-04T04:50:41.390Z,11.17
2022-10-04T04:53:18.852Z,11.18
2022-10-04T04:56:05.548Z,11.21
2022-10-04T04:58:40.590Z,11.20
2022-10-04T05:01:27.639Z,11.26
2022-10-04T05:04:06.023Z,11.31
2022-10-04T05:06:36.965Z,11.31
2022-10-04T05:09:06.783Z,11.37
2022-10-04T05:11:39.670Z,11.41
2022-10-04T05:14:12.697Z,11.40
2022-10-04T05:16:52.577Z,11.43
2022-10-04T05:19:29.654Z,11.46
2022-10-04T05:22:02.405Z,11.42
2022-10-04T05:24:35.213Z,11.47
2022-10-04T05:27:24.569Z,11.53
2022-10-04T05:30:12.149Z,11.59
2022-10-04T05:33:01.980Z,11.61
2022-10-04T05:35:48.913Z,11.58
2022-10-04T05:38:42.751Z,11.56
2022-10-04T05:41:36.640Z,11.59
2022-10-04T05:44:24.823Z,11.60
2022-10-04T05:47:07.796Z,11.62
2022-10-04T05:49:47.507Z,11.66
2022-10-04T05:52:38.991Z,11.72
2022-10-04T05:55:26.866Z,11.79
2022-10-04T05:58:05.143Z,11.82
2022-10-04T06:00:46.729Z,11.83
2022-10-04T06:03:39.317Z,11.83
2022-10-04T06:06:25.298Z,11.86
2022-10-04T06:09:02.842Z,11.88
2022-10-04T06:11:46.753Z,11.89
2022-10-04T06:14:21.930Z,11.88
2022-10-04T06:16:51.092Z,11.87
2022-10-04T06:19:32.602Z,11.86
2022-10-04T06:22:27.607Z,11.87
2022-10-04T06:25:04.550Z,11.93
2022-10-04T06:27:42.547Z,12.02
2022-10-04T06:30:17.580Z,12.09
2022-10-04T06:33:16.706Z,12.17
2022-10-04T06:36:25.105Z,12.21
2022-10-04T06:39:33.379Z,12.27
2022-10-04T06:42:12.085Z,12.34
2022-10-04T06:44:50.551Z,12.38
2022-10-04T06:47:32.320Z,12.43
2022-10-04T06:50:14.891Z,12.49
2022-10-04T06:52:55.601Z,12.47
2022-10-04T06:55:50.613Z,12.51
2022-10-04T06:58:46.950Z,12.61
2022-10-04T07:01:32.365Z,12.62
2022-10-04T07:04:28.649Z,12.67
2022-10-04T07:07:36.049Z,12.70
2022-10-04T07:10:26.374Z,12.78
2022-10-04T07:13:07.921Z,12.91
2022-10-04T07:15:53.607Z,13.02
2022-10-04T07:18:33.287Z,13.05
2022-10-04T07:21:10.238Z,13.05
2022-10-04T07:23:54.164Z,13.12
2022-10-04T07:26:35.028Z,13.30
2022-10-04T07:29:24.221Z,13.34
2022-10-04T07:32:03.526Z,13.45
2022-10-04T07:34:42.266Z,13.54
2022-10-04T07:37:13.737Z,13.57
2022-10-04T07:40:01.288Z,13.60
2022-10-04T07:42:36.337Z,13.62
2022-10-04T07:45:12.029Z,13.61
2022-10-04T07:47:41.856Z,13.54
2022-10-04T07:50:24.746Z,13.53
2022-10-04T07:53:09.890Z,13.58
2022-10-04T07:56:23.694Z,13.61
2022-10-04T07:59:23.782Z,13.63
2022-10-04T08:02:14.124Z,13.58
2022-10-04T08:05:02.450Z,13.51
2022-10-04T08:08:00.479Z,13.50
2022-10-04T08:10:56.558Z,13.50
2022-10-04T08:14:07.128Z,13.47
2022-10-04T08:16:58.749Z,13.60
2022-10-04T08:19:47.877Z,13.70
2022-10-04T08:22:30.309Z,13.83
2022-10-04T08:25:11.877Z,13.88
2022-10-04T08:28:34.526Z,13.88
2022-10-04T08:31:26.864Z,13.94
2022-10-04T08:34:06.911Z,13.93
2022-10-04T08:37:05.777Z,13.91
2022-10-04T08:40:25.214Z,13.96
2022-10-04T08:42:54.987Z,14.00
2022-10-04T08:45:38.896Z,14.05
2022-10-04T08:48:48.644Z,14.11
2022-10-04T08:51:39.082Z,14.20
2022-10-04T08:54:20.469Z,14.23
2022-10-04T08:56:50.191Z,14.21
2022-10-04T08:59:40.899Z,14.22
2022-10-04T09:02:32.071Z,14.33
2022-10-04T09:05:34.928Z,14.37
2022-10-04T09:08:17.253Z,14.41
2022-10-04T09:11:19.699Z,14.37
2022-10-04T09:14:25.881Z,14.34
2022-10-04T09:17:08.615Z,14.38
2022-10-04T09:19:49.306Z,14.41
2022-10-04T09:22:36.882Z,14.51
2022-10-04T09:25:36.002Z,14.50
2022-10-04T09:28:05.504Z,14.44
2022-10-04T09:31:05.274Z,14.37
2022-10-04T09:33:51.386Z,14.35
2022-10-04T09:37:02.397Z,14.29
2022-10-04T09:40:04.609Z,14.30
2022-10-04T09:42:50.703Z,14.38
2022-10-04T09:45:29.563Z,14.54
2022-10-04T09:48:08.643Z,14.68
2022-10-04T09:51:16.812Z,14.82
2022-10-04T09:54:13.339Z,14.99
2022-10-04T09:57:09.742Z,15.22
2022-10-04T10:00:08.160Z,15.37
2022-10-04T10:03:24.098Z,15.44
2022-10-04T10:06:22.439Z,15.53
2022-10-04T10:08:57.694Z,15.52
2022-10-04T10:12:12.296Z,15.58
2022-10-04T10:15:01.152Z,15.58
2022-10-04T10:17:40.515Z,15.58
2022-10-04T10:20:25.013Z,15.55
2022-10-04T10:23:21.751Z,15.59
2022-10-04T10:26:24.638Z,15.62
2022-10-04T10:29:50.202Z,15.63
2022-10-04T10:32:37.823Z,15.50
2022-10-04T10:35:26.183Z,15.33
2022-10-04T10:38:17.607Z,15.23
2022-10-04T10:41:20.406Z,15.23
2022-10-04T10:44:22.826Z,15.30
2022-10-04T10:47:09.181Z,15.23
2022-10-04T10:50:22.867Z,15.15
2022-10-04T10:53:26.656Z,15.19
2022-10-04T10:56:17.994Z,15.37
2022-10-04T10:59:06.394Z,15.46
2022-10-04T11:02:06.311Z,15.48
2022-10-04T11:04:53.020Z,15.52
2022-10-04T11:07:51.193Z,15.49
2022-10-04T11:10:53.839Z,15.48
2022-10-04T11:13:34.781Z,15.46
2022-10-04T11:16:26.455Z,15.38
2022-10-04T11:19:33.783Z,15.41
2022-10-04T11:22:37.455Z,15.42
2022-10-04T11:25:20.098Z,15.41
2022-10-04T11:28:19.185Z,15.46
2022-10-04T11:31:24.874Z,15.55
2022-10-04T11:34:04.023Z,15.65
2022-10-04T11:36:48.789Z,15.72
2022-10-04T11:39:43.761Z,15.75
2022-10-04T11:42:41.518Z,15.71
2022-10-04T11:45:38.852Z,15.72
2022-10-04T11:48:26.725Z,15.78
2022-10-04T11:51:05.383Z,15.81
2022-10-04T11:54:02.076Z,15.86
2022-10-04T11:57:03.700Z,15.86
2022-10-04T11:59:47.489Z,15.87
2022-10-04T12:02:19.153Z,15.88
2022-10-04T12:05:22.636Z,15.92
2022-10-04T12:08:16.164Z,16.06
2022-10-04T12:11:11.851Z,16.20
2022-10-04T12:14:14.053Z,16.29
2022-10-04T12:16:57.217Z,16.34
2022-10-04T12:19:43.143Z,16.31
2022-10-04T12:22:36.569Z,16.23
2022-10-04T12:25:38.265Z,16.11
2022-10-04T12:28:22.292Z,16.04
2022-10-04T12:31:12.613Z,16.02
2022-10-04T12:34:04.183Z,16.08
2022-10-04T12:37:01.897Z,16.20
2022-10-04T12:39:57.992Z,16.21
2022-10-04T12:42:50.070Z,16.15
2022-10-04T12:45:44.494Z,16.05
2022-10-04T12:48:28.629Z,15.96
2022-10-04T12:51:07.242Z,15.87
2022-10-04T12:53:58.508Z,15.73
2022-10-04T12:57:07.506Z,15.62
2022-10-04T12:59:49.292Z,15.51
2022-10-04T13:02:36.947Z,15.44
2022-10-04T13:05:25.897Z,15.35
2022-10-04T13:08:04.437Z,15.26
2022-10-04T13:10:48.743Z,15.22
2022-10-04T13:13:42.413Z,15.23
2022-10-04T13:19:29.410Z,15.26
2022-10-04T13:21:58.918Z,15.29
2022-10-04T13:24:56.205Z,15.31
2022-10-04T13:27:48.748Z,15.30
2022-10-04T13:30:42.873Z,15.26
2022-10-04T13:33:25.498Z,15.21
2022-10-04T13:36:07.166Z,15.14
2022-10-04T13:38:40.158Z,15.12
2022-10-04T13:41:47.533Z,15.11
2022-10-04T13:44:22.970Z,15.13
2022-10-04T13:47:14.289Z,15.18
2022-10-04T13:50:02.935Z,15.21
2022-10-04T13:53:15.824Z,15.29
2022-10-04T13:56:31.449Z,15.36
2022-10-04T13:59:24.660Z,15.47
2022-10-04T14:02:11.201Z,15.53
2022-10-04T14:04:57.923Z,15.57
2022-10-04T14:07:46.130Z,15.64
2022-10-04T14:10:31.044Z,15.72
2022-10-04T14:13:28.739Z,15.82
2022-10-04T14:16:19.942Z,15.88
2022-10-04T14:19:00.796Z,15.95
2022-10-04T14:22:04.647Z,16.03
2022-10-04T14:24:47.496Z,16.14
2022-10-04T14:27:38.232Z,16.24
2022-10-04T14:30:41.299Z,16.32
2022-10-04T14:33:20.028Z,16.39
2022-10-04T14:36:31.190Z,16.41
2022-10-04T14:39:28.631Z,16.36
2022-10-04T14:42:24.687Z,16.28
2022-10-04T14:45:12.717Z,16.21
2022-10-04T14:48:01.485Z,16.17
2022-10-04T14:50:45.226Z,16.11
2022-10-04T14:53:56.869Z,16.01
2022-10-04T14:56:37.928Z,15.89
2022-10-04T14:59:15.659Z,15.82
2022-10-04T15:02:25.897Z,15.77
2022-10-04T15:05:40.063Z,15.69
2022-10-04T15:08:25.483Z,15.61
2022-10-04T15:10:54.100Z,15.56
2022-10-04T15:13:37.812Z,15.48
2022-10-04T15:16:10.119Z,15.41
2022-10-04T15:18:52.819Z,15.34
2022-10-04T15:21:32.499Z,15.25
2022-10-04T15:24:24.418Z,15.19
2022-10-04T15:27:51.299Z,15.17
2022-10-04T15:30:46.036Z,15.10
2022-10-04T15:34:02.857Z,15.04
2022-10-04T15:37:07.424Z,15.02
2022-10-04T15:39:58.259Z,14.95
2022-10-04T15:42:30.200Z,14.85
2022-10-04T15:45:15.353Z,14.80
2022-10-04T15:48:02.556Z,14.75
2022-10-04T15:50:51.030Z,14.73
2022-10-04T15:53:20.484Z,14.69
2022-10-04T15:55:58.807Z,14.65
2022-10-04T15:58:31.234Z,14.62
2022-10-04T16:01:03.209Z,14.57
2022-10-04T16:03:31.652Z,14.52
2022-10-04T16:06:08.945Z,14.41
2022-10-04T16:08:47.920Z,14.36
2022-10-04T16:11:23.315Z,14.34
2022-10-04T16:13:52.211Z,14.32
2022-10-04T16:16:27.415Z,14.29
2022-10-04T16:19:15.469Z,14.23
2022-10-04T16:21:53.765Z,14.19
2022-10-04T16:24:22.262Z,14.15
2022-10-04T16:26:51.201Z,14.10
2022-10-04T16:29:29.186Z,14.05
2022-10-04T16:31:58.421Z,14.00
2022-10-04T16:34:27.073Z,13.95
2022-10-04T16:37:35.878Z,13.90
2022-10-04T16:40:12.979Z,13.84
2022-10-04T16:42:53.431Z,13.78
2022-10-04T16:45:36.277Z,13.73
2022-10-04T16:48:24.331Z,13.69
2022-10-04T16:50:53.533Z,13.63
2022-10-04T16:53:40.994Z,13.57
2022-10-04T16:56:20.520Z,13.50
2022-10-04T16:59:03.431Z,13.45
2022-10-04T17:02:07.848Z,13.43
2022-10-04T17:04:37.485Z,13.38
2022-10-04T17:07:25.196Z,13.36
2022-10-04T17:09:57.015Z,13.36
2022-10-04T17:12:46.692Z,13.34
2022-10-04T17:15:15.666Z,13.33
2022-10-04T17:17:44.897Z,13.31
2022-10-04T17:20:26.593Z,13.25
2022-10-04T17:22:57.464Z,13.22
2022-10-04T17:25:33.416Z,13.19
2022-10-04T17:28:21.672Z,13.12
2022-10-04T17:30:54.013Z,13.06
2022-10-04T17:33:35.490Z,13.00
2022-10-04T17:36:15.967Z,12.95
2022-10-04T17:38:57.042Z,12.91
2022-10-04T17:41:36.352Z,12.86
2022-10-04T17:44:30.282Z,12.79
2022-10-04T17:47:14.546Z,12.74
2022-10-04T17:50:14.464Z,12.71
2022-10-04T17:53:08.520Z,12.68
2022-10-04T17:55:47.465Z,12.64
2022-10-04T17:58:16.782Z,12.58
2022-10-04T18:00:50.527Z,12.56
2022-10-04T18:03:25.954Z,12.54
2022-10-04T18:06:01.886Z,12.53
2022-10-04T18:08:40.467Z,12.51
2022-10-04T18:11:22.674Z,12.50
2022-10-04T18:14:18.237Z,12.47
2022-10-04T18:16:52.837Z,12.45
2022-10-04T18:19:41.068Z,12.44
2022-10-04T18:22:17.386Z,12.43
2022-10-04T18:24:48.341Z,12.38
2022-10-04T18:27:24.330Z,12.35
2022-10-04T18:30:11.121Z,12.32
2022-10-04T18:32:41.148Z,12.30
2022-10-04T18:35:28.909Z,12.29
2022-10-04T18:38:17.638Z,12.25
2022-10-04T18:40:58.958Z,12.22
2022-10-04T18:43:41.124Z,12.22
2022-10-04T18:46:17.680Z,12.21
2022-10-04T18:49:05.920Z,12.21
2022-10-04T18:51:42.213Z,12.19
2022-10-04T18:54:10.897Z,12.17
2022-10-04T18:56:53.379Z,12.15
2022-10-04T18:59:41.233Z,12.13
2022-10-04T19:02:10.098Z,12.09
2022-10-04T19:04:58.315Z,12.06
2022-10-04T19:07:47.423Z,12.01
2022-10-04T19:10:19.841Z,11.98
2022-10-04T19:13:01.269Z,11.94
2022-10-04T19:15:47.324Z,11.92
2022-10-04T19:18:30.359Z,11.89
2022-10-04T19:21:04.728Z,11.87
2022-10-04T19:23:33.308Z,11.85
2022-10-04T19:26:31.122Z,11.84
2022-10-04T19:29:19.686Z,11.82
2022-10-04T19:32:00.944Z,11.81
2022-10-04T19:34:48.555Z,11.80
2022-10-04T19:37:32.082Z,11.79
2022-10-04T19:40:04.940Z,11.77
2022-10-04T19:42:34.518Z,11.74
2022-10-04T19:45:25.768Z,11.73
2022-10-04T19:47:57.274Z,11.73
2022-10-04T19:50:29.846Z,11.73
2022-10-04T19:53:02.898Z,11.74
2022-10-04T19:55:34.540Z,11.75
2022-10-04T19:58:32.665Z,11.75
2022-10-04T20:01:01.515Z,11.75
2022-10-04T20:03:30.143Z,11.72
2022-10-04T20:05:59.993Z,11.72
2022-10-04T20:08:47.531Z,11.72
2022-10-04T20:11:19.788Z,11.73
2022-10-04T20:14:09.183Z,11.72
2022-10-04T20:17:01.552Z,11.71
2022-10-04T20:19:30.618Z,11.70
2022-10-04T20:22:08.692Z,11.71
2022-10-04T20:24:38.202Z,11.70
2022-10-04T20:27:25.260Z,11.71
2022-10-04T20:29:57.927Z,11.71
2022-10-04T20:32:27.020Z,11.74
2022-10-04T20:34:56.665Z,11.73
2022-10-04T20:37:43.981Z,11.74
2022-10-04T20:40:33.034Z,11.76
2022-10-04T20:43:24.667Z,11.78
2022-10-04T20:45:57.711Z,11.82
2022-10-04T20:48:28.185Z,11.86
2022-10-04T20:50:56.899Z,11.88
2022-10-04T20:53:27.368Z,11.89
2022-10-04T20:56:12.172Z,11.92
2022-10-04T20:58:41.582Z,11.94
2022-10-04T21:01:39.435Z,11.96
2022-10-04T21:04:17.534Z,11.99
2022-10-04T21:06:57.375Z,12.02
2022-10-04T21:09:27.820Z,12.02
2022-10-04T21:11:56.755Z,12.03
2022-10-04T21:14:30.931Z,12.05
2022-10-04T21:17:02.957Z,12.05
2022-10-04T21:19:44.344Z,12.03
2022-10-04T21:22:16.145Z,12.03
2022-10-04T21:24:51.010Z,12.03
2022-10-04T21:27:26.439Z,12.03
2022-10-04T21:29:55.624Z,12.02
2022-10-04T21:32:25.555Z,12.02
2022-10-04T21:34:54.934Z,12.05
2022-10-04T21:37:24.040Z,12.06
2022-10-04T21:39:53.205Z,12.08
2022-10-04T21:42:22.681Z,12.10
2022-10-04T21:44:51.601Z,12.14
2022-10-04T21:47:22.426Z,12.15
2022-10-04T21:49:52.754Z,12.16
2022-10-04T21:52:22.814Z,12.18
2022-10-04T21:54:52.397Z,12.20
2022-10-04T21:57:22.823Z,12.22
2022-10-04T21:59:51.395Z,12.24
2022-10-04T22:02:20.389Z,12.24
2022-10-04T22:54:03.529Z,11.89
2022-10-04T22:56:32.389Z,11.86
2022-10-04T22:59:01.211Z,11.83
